Terminal Aerodrome Forecast
Issued by NWS Shreveport, LA

Home | Current Version | Previous Version | Text Only | Print | Product List | Glossary On
Versions: 1 2 3 4 5 6 7 8 9 10 11 12 13 14
000
FTUS44 KSHV 250500
TAFTXK
TAF
KTXK 250532Z 2506/2606 21003KT P6SM SKC
      TEMPO 2510/2513 5SM BR
     FM251500 24007KT P6SM FEW050
     FM260000 21004KT P6SM SKC=

USA.gov is the U.S. government's official web portal to all federal, state and local government web resources and services.